Columbus Air Force Base
KCBM : now visible

Airfield :











YOU CAN JOIN US ON...

 
LOGIN :

Register | Disclaimer

   EN    FR    IT 

 









Legend :    VFR   Marginal VFR   IFR   Intensive IFR   Very Intensive IFR
Visi :
Ceiling :
>= 8 km
>= 3000ft
5 to 8 km
1000 to 3000 ft
1500m to 5 km
500 to 1000 ft
800 to 1500m
200 to 500 ft
< 800m
< 200 ft
Symbols :   Thunderstorms  Fog  Heavy snow  Heavy precipitations  Wind > 20 kt






- Airport Elevation : 219 ft


KCBM - Columbus Air Force Base

CURRENT METAR :
  • 041956Z AUTO 00000KT 10SM FEW110 32/19 A2994 RMK AO2 SLP139 T03150188 $

EXPIRED METARs :
  • 041856Z AUTO 00000KT 10SM FEW038 FEW065 FEW080 31/21 A2996 RMK AO2 SLP146 T03070206 $
  • 041811Z AUTO 00000KT 10SM SCT044 BKN120 30/19 A2997 RMK AO2 SLP150 $
  • 041806Z AUTO 33004KT 10SM BKN043 31/20 A2997 RMK AO2 SLP149 $
  • 041756Z AUTO 00000KT 10SM CLR 31/21 A2997 RMK AO2 SLP149 T03050207 10309 20211 58004 $

TAF AMD TAF KCBM
Valid from the 04 at 18:00 until the 05 at 23:00 UTC


041825Z 0418/0523 VRB06KT 9999 VCSH SCT050 QNH2991INS
TEMPO 0418/0421 33010G15KT 9000 -SHRA VCTS SCT035CB
BECMG 0422/0423 36006KT 9999 NSW FEW050 QNH2991INS TX34/0419Z TN21/0509Z
KZME FIR / North America



MET'MAP, your aeronautical weather chart ! - Copyright ORBIFLY December 2007 - Disclaimer

ORBIFLY MET'MAP TEAM :

Programming & Development : Alexandra Zaïnal
Concept & original design : Baudouin d'Aumeries
Assistance for programming : Marc-Olivier Méhu
Technical & hardware support : Manuel Goepfert

Contact : metmap@orbifly.com




SOURCES & CREDITS :

   NOAA       Earth
Advisory